Time;durP1;ratioP1;P1;durP2;ratioP2;P2;SDS_P1;SDS_P2;PMS_P1;PMS_P2;Temp;Humidity;BMP_temperature;BMP_pressure;BME280_temperature;BME280_humidity;BME280_pressure;Samples;Min_cycle;Max_cycle;Signal;HPM_P1;HPM_P2
2022/08/05 00:01:55;;;;;;;5.25;3.25;;;;;;;26.82;56.07;99625.75;4882729;29;20036;-81
2022/08/05 00:04:20;;;;;;;3.80;1.70;;;;;;;26.72;58.69;99614.09;4898846;29;20040;-82
2022/08/05 00:06:46;;;;;;;5.63;2.05;;;;;;;26.58;59.92;99612.78;4882043;29;20035;-82
2022/08/05 00:09:11;;;;;;;3.03;1.65;;;;;;;26.62;60.58;99643.31;4881018;29;20048;-82
2022/08/05 00:11:37;;;;;;;4.07;2.33;;;;;;;26.48;59.27;99652.06;4882516;29;20056;-82
2022/08/05 00:14:03;;;;;;;3.05;1.55;;;;;;;26.46;59.68;99671.34;4899244;29;20040;-82
2022/08/05 00:16:28;;;;;;;3.33;1.67;;;;;;;26.33;60.74;99678.19;4881924;29;20041;-82
2022/08/05 00:18:54;;;;;;;9.98;1.88;;;;;;;26.24;57.88;99666.38;4882565;29;20028;-82
2022/08/05 00:21:19;;;;;;;7.70;2.15;;;;;;;26.33;58.53;99670.88;4883783;29;20025;-81
2022/08/05 00:23:46;;;;;;;3.90;1.83;;;;;;;26.37;58.01;99657.78;4898518;29;20060;-82
2022/08/05 00:26:13;;;;;;;3.75;1.80;;;;;;;26.39;59.18;99662.06;4880020;29;20412;-82
2022/08/05 00:28:39;;;;;;;3.42;1.75;;;;;;;26.40;59.65;99676.56;4880143;29;20036;-81
2022/08/05 00:31:05;;;;;;;4.32;1.90;;;;;;;26.32;60.20;99671.03;4897066;29;20035;-82
2022/08/05 00:33:31;;;;;;;5.78;2.63;;;;;;;26.09;59.81;99634.38;4880699;29;20025;-81
2022/08/05 00:35:57;;;;;;;2.33;1.50;;;;;;;26.17;61.22;99648.94;4897175;29;20032;-81
2022/08/05 00:38:22;;;;;;;5.63;1.90;;;;;;;26.00;63.64;99635.28;4897576;29;20029;-81
2022/08/05 00:40:54;;;;;;;6.40;2.05;;;;;;;25.85;63.03;99630.38;4880088;29;20077;-81
2022/08/05 00:43:20;;;;;;;3.10;1.67;;;;;;;25.87;63.44;99649.28;4880317;29;20039;-82
2022/08/05 00:45:46;;;;;;;4.82;1.90;;;;;;;25.80;63.36;99654.50;4897383;29;20377;-81
2022/08/05 00:48:21;;;;;;;4.78;1.77;;;;;;;25.64;63.07;99651.63;4897373;29;20029;-82
2022/08/05 00:50:49;;;;;;;2.90;1.67;;;;;;;25.55;64.91;99649.81;4880181;29;20119;-81
2022/08/05 00:53:16;;;;;;;3.75;2.00;;;;;;;25.62;63.36;99669.97;4897609;29;20029;-82
2022/08/05 00:55:42;;;;;;;4.57;2.05;;;;;;;25.59;65.01;99680.31;4897062;29;20370;-82
2022/08/05 00:58:09;;;;;;;3.33;1.73;;;;;;;25.44;65.13;99674.53;4896745;29;20103;-81
2022/08/05 01:00:34;;;;;;;6.55;1.85;;;;;;;25.35;60.96;99667.31;4895798;29;20028;-82
2022/08/05 01:03:00;;;;;;;3.50;2.00;;;;;;;25.52;61.46;99668.31;4896629;29;20032;-81
2022/08/05 01:05:26;;;;;;;4.00;1.67;;;;;;;25.43;63.75;99642.88;4879867;29;20119;-81
2022/08/05 01:07:51;;;;;;;4.32;1.90;;;;;;;25.47;64.68;99657.88;4895888;29;20116;-81
2022/08/05 01:10:21;;;;;;;2.65;1.80;;;;;;;25.37;66.15;99659.81;4878989;29;20024;-82
2022/08/05 01:12:53;;;;;;;4.65;1.83;;;;;;;25.26;66.02;99656.41;4896487;29;20540;-82
2022/08/05 01:15:24;;;;;;;4.10;1.88;;;;;;;25.23;66.25;99671.19;4895782;29;20028;-82
2022/08/05 01:17:55;;;;;;;4.03;1.90;;;;;;;25.11;65.93;99658.78;4879823;29;20059;-81
2022/08/05 01:21:05;;;;;;;4.38;1.65;;;;;;;25.17;65.79;99693.53;4896810;29;20040;-81
2022/08/05 01:24:08;;;;;;;2.92;1.60;;;;;;;24.87;67.55;99677.50;4814607;29;20046;-82
2022/08/05 01:26:39;;;;;;;3.65;2.08;;;;;;;24.75;68.80;99684.09;4879593;29;20029;-82
2022/08/05 01:29:16;;;;;;;3.38;1.67;;;;;;;24.58;69.74;99682.97;4896321;29;20036;-82
2022/08/05 01:31:51;;;;;;;4.47;2.10;;;;;;;24.43;71.31;99667.28;4879799;29;20067;-82
2022/08/05 01:34:31;;;;;;;2.80;1.63;;;;;;;24.38;71.89;99670.41;4897337;29;20033;-82
2022/08/05 01:36:59;;;;;;;4.30;2.33;;;;;;;24.32;72.19;99670.13;4880354;29;20131;-81
2022/08/05 01:39:26;;;;;;;5.20;1.88;;;;;;;24.21;73.28;99652.13;4895482;29;20024;-81
2022/08/05 01:41:54;;;;;;;4.15;1.60;;;;;;;24.33;73.06;99677.31;4895666;29;20032;-81
2022/08/05 01:44:21;;;;;;;2.70;1.70;;;;;;;24.27;72.76;99661.53;4879313;29;20484;-82
2022/08/05 01:46:47;;;;;;;4.03;1.80;;;;;;;24.16;72.50;99654.41;4896242;29;20029;-82
2022/08/05 01:49:18;;;;;;;4.60;1.85;;;;;;;24.32;73.07;99668.28;4896076;29;20103;-82
2022/08/05 01:51:44;;;;;;;2.97;2.00;;;;;;;24.30;72.38;99672.16;4896230;29;20027;-82
2022/08/05 01:54:13;;;;;;;3.40;2.05;;;;;;;24.30;72.96;99677.59;4879439;29;20399;-82
2022/08/05 01:56:41;;;;;;;5.15;2.10;;;;;;;24.36;73.58;99698.75;4879317;29;20036;-82
2022/08/05 01:59:12;;;;;;;4.60;1.85;;;;;;;24.23;74.62;99687.31;4895755;29;20073;-82
2022/08/05 02:01:39;;;;;;;3.05;1.85;;;;;;;24.12;75.09;99699.19;4879064;29;20044;-81
2022/08/05 02:04:06;;;;;;;5.53;2.28;;;;;;;24.15;76.25;99711.66;4895394;29;20496;-81
2022/08/05 02:06:32;;;;;;;4.78;1.77;;;;;;;23.97;76.69;99713.31;4878578;29;20089;-82
2022/08/05 02:08:58;;;;;;;3.85;2.08;;;;;;;23.99;77.14;99719.47;4877789;29;20060;-82
2022/08/05 02:11:24;;;;;;;2.80;1.90;;;;;;;23.93;76.61;99711.88;4877960;29;20646;-81
2022/08/05 02:13:59;;;;;;;3.17;1.80;;;;;;;23.93;76.15;99720.03;4895194;29;20465;-82
2022/08/05 02:16:31;;;;;;;2.38;1.73;;;;;;;23.86;76.96;99702.56;4878522;29;20395;-81
2022/08/05 02:19:22;;;;;;;3.13;1.83;;;;;;;23.95;77.46;99723.47;4878581;29;20786;-81
2022/08/05 02:22:06;;;;;;;3.83;2.30;;;;;;;23.87;77.45;99704.28;4901964;29;20035;-82
2022/08/05 02:24:36;;;;;;;4.25;2.10;;;;;;;23.89;77.89;99677.81;4901618;29;20024;-82
2022/08/05 02:27:04;;;;;;;4.05;2.10;;;;;;;23.90;76.79;99672.28;4884210;29;20080;-81
2022/08/05 02:29:34;;;;;;;3.35;1.98;;;;;;;24.06;76.51;99677.16;4884484;29;20480;-81
2022/08/05 02:32:00;;;;;;;2.17;1.60;;;;;;;24.06;75.43;99674.44;4901859;29;20071;-82
2022/08/05 02:34:30;;;;;;;4.32;1.98;;;;;;;24.22;75.10;99688.31;4884650;29;20502;-81
2022/08/05 02:36:59;;;;;;;2.67;1.70;;;;;;;24.29;75.67;99694.88;4901668;29;20063;-82
2022/08/05 02:39:26;;;;;;;4.63;1.90;;;;;;;24.17;77.30;99677.00;4884680;29;20035;-81
2022/08/05 02:41:53;;;;;;;5.35;2.20;;;;;;;24.16;77.83;99654.41;4901038;29;20180;-81
2022/08/05 02:44:21;;;;;;;3.90;2.17;;;;;;;24.25;75.72;99647.25;4884275;29;20032;-82
2022/08/05 02:46:48;;;;;;;3.28;2.13;;;;;;;24.32;74.39;99649.25;4901282;29;20029;-81
2022/08/05 02:49:15;;;;;;;4.28;2.22;;;;;;;24.41;73.60;99661.13;4883920;29;20029;-82
2022/08/05 02:51:42;;;;;;;5.70;2.13;;;;;;;24.37;74.41;99656.97;4884237;29;20024;-81
2022/08/05 02:54:09;;;;;;;4.07;1.83;;;;;;;24.45;75.03;99668.81;4884085;29;20032;-82
2022/08/05 02:56:35;;;;;;;6.55;2.00;;;;;;;24.42;74.81;99660.97;4900897;29;20029;-82
2022/08/05 02:59:03;;;;;;;3.58;2.00;;;;;;;24.43;74.60;99668.09;4901288;29;20040;-81
2022/08/05 03:01:31;;;;;;;4.40;2.05;;;;;;;24.41;75.83;99667.41;4901788;29;20177;-82
2022/08/05 03:04:02;;;;;;;4.45;2.17;;;;;;;24.13;77.38;99643.84;4901096;29;20069;-82
2022/08/05 03:06:29;;;;;;;3.65;2.30;;;;;;;24.19;78.11;99658.69;4884540;29;20032;-82
2022/08/05 03:08:55;;;;;;;5.57;2.40;;;;;;;24.17;78.12;99671.56;4883811;29;20132;-81
2022/08/05 03:11:23;;;;;;;3.50;1.77;;;;;;;23.92;78.50;99623.22;4901197;29;20060;-81
2022/08/05 03:13:49;;;;;;;5.72;2.42;;;;;;;24.15;79.17;99668.16;4901565;29;20032;-82
2022/08/05 03:16:14;;;;;;;4.13;2.10;;;;;;;24.15;79.30;99679.03;4883750;29;20025;-82
2022/08/05 03:18:41;;;;;;;3.95;2.25;;;;;;;24.21;79.90;99694.75;4902185;29;20039;-82
2022/08/05 03:21:06;;;;;;;8.23;2.20;;;;;;;24.07;80.78;99687.88;4902149;29;20028;-82
2022/08/05 03:23:37;;;;;;;3.17;2.17;;;;;;;24.06;81.37;99702.47;4887678;29;20429;-82
2022/08/05 03:26:03;;;;;;;3.33;2.00;;;;;;;23.97;82.07;99713.31;4884533;29;20024;-82
2022/08/05 03:28:29;;;;;;;4.78;2.50;;;;;;;23.82;82.44;99718.28;4900974;29;20115;-82
2022/08/05 03:30:56;;;;;;;7.50;2.83;;;;;;;23.84;82.29;99740.75;4882040;29;20029;-82
2022/08/05 03:33:22;;;;;;;4.68;2.30;;;;;;;23.81;81.98;99735.59;4898292;29;20067;-81
2022/08/05 03:35:49;;;;;;;5.53;2.20;;;;;;;23.75;82.19;99729.84;4881077;29;20464;-82
2022/08/05 03:38:16;;;;;;;4.45;2.35;;;;;;;23.74;81.98;99714.56;4898259;29;20032;-82
2022/08/05 03:40:42;;;;;;;4.65;2.58;;;;;;;23.75;82.19;99699.97;4882191;29;20050;-81
2022/08/05 03:43:08;;;;;;;5.32;2.20;;;;;;;23.75;81.57;99697.25;4908461;29;20024;-82
2022/08/05 03:45:33;;;;;;;6.28;2.45;;;;;;;23.75;81.94;99708.13;4913576;29;20491;-81
2022/08/05 03:47:59;;;;;;;4.70;2.10;;;;;;;23.85;81.85;99736.19;4898865;29;20056;-82
2022/08/05 03:50:40;;;;;;;7.53;2.28;;;;;;;23.73;82.29;99740.00;4897969;29;20477;-82
2022/08/05 03:53:15;;;;;;;6.05;2.30;;;;;;;23.50;83.31;99741.22;4896295;29;20041;-82
2022/08/05 03:55:53;;;;;;;5.45;2.65;;;;;;;23.41;84.43;99765.47;4897070;29;20035;-82
2022/08/05 03:58:23;;;;;;;3.95;2.28;;;;;;;23.38;85.02;99782.06;4880767;29;20036;-82
2022/08/05 04:00:50;;;;;;;5.60;2.40;;;;;;;23.47;85.56;99810.25;4880431;29;20036;-82
2022/08/05 04:03:17;;;;;;;4.90;2.63;;;;;;;23.40;86.43;99818.06;4880632;29;20028;-82
2022/08/05 04:05:43;;;;;;;6.28;2.60;;;;;;;23.41;86.49;99835.19;4880892;29;20375;-82
2022/08/05 04:08:10;;;;;;;4.75;2.50;;;;;;;23.57;85.11;99873.59;4881636;29;20581;-82
2022/08/05 04:10:36;;;;;;;5.53;2.08;;;;;;;23.19;83.15;99824.50;4898290;29;20122;-82
2022/08/05 04:13:02;;;;;;;4.35;2.47;;;;;;;23.74;81.88;99896.56;4897992;29;20100;-82
2022/08/05 04:15:28;;;;;;;5.43;2.17;;;;;;;23.86;80.83;99890.03;4897780;29;20025;-82
2022/08/05 04:17:54;;;;;;;4.93;2.78;;;;;;;23.83;79.34;99884.88;4898447;29;20124;-82
2022/08/05 04:20:21;;;;;;;3.95;2.00;;;;;;;24.01;77.77;99907.72;4896829;29;20076;-82
2022/08/05 04:22:47;;;;;;;3.60;2.03;;;;;;;24.23;76.39;99937.41;4881754;29;20032;-82
2022/08/05 04:25:13;;;;;;;7.32;2.20;;;;;;;24.37;74.93;99929.72;4882215;29;20552;-82
2022/08/05 04:27:38;;;;;;;6.15;2.30;;;;;;;24.59;74.57;99951.28;4881420;29;20035;-82
2022/08/05 04:30:05;;;;;;;8.77;2.47;;;;;;;24.64;72.64;99943.50;4881956;29;20040;-82
2022/08/05 04:32:30;;;;;;;3.60;2.13;;;;;;;24.81;71.81;99955.59;4898756;29;20033;-82
2022/08/05 04:34:56;;;;;;;4.07;1.55;;;;;;;25.01;69.94;99973.69;4880406;29;20025;-82
2022/08/05 04:37:21;;;;;;;5.50;1.85;;;;;;;25.08;69.40;99955.78;4880990;29;20037;-81
2022/08/05 04:39:47;;;;;;;5.82;1.75;;;;;;;25.26;68.57;99958.63;4898869;29;20029;-82
2022/08/05 04:42:12;;;;;;;6.38;1.90;;;;;;;25.38;69.23;99984.75;4898859;29;20112;-82
2022/08/05 04:44:38;;;;;;;5.93;1.90;;;;;;;25.32;69.10;99972.53;4898326;29;20039;-82
2022/08/05 04:47:03;;;;;;;7.55;2.90;;;;;;;25.39;69.68;99987.34;4880885;29;20067;-82
2022/08/05 04:49:29;;;;;;;7.63;2.03;;;;;;;25.36;69.59;99987.63;4881104;29;20040;-83
2022/08/05 04:51:54;;;;;;;6.95;1.98;;;;;;;25.46;69.34;99987.63;4880729;29;20028;-82
2022/08/05 04:54:21;;;;;;;5.28;2.10;;;;;;;25.41;70.51;99960.81;4898503;29;20168;-82
2022/08/05 04:56:46;;;;;;;4.15;1.73;;;;;;;25.42;73.82;99948.91;4881211;29;20029;-82
2022/08/05 04:59:14;;;;;;;3.92;1.88;;;;;;;25.28;74.72;99949.34;4880941;29;20043;-82
2022/08/05 05:01:40;;;;;;;15.10;3.58;;;;;;;25.23;74.71;99962.53;4898033;29;20048;-83
2022/08/05 05:04:05;;;;;;;9.70;1.85;;;;;;;25.18;74.86;99975.72;4898201;29;20485;-83
2022/08/05 05:06:31;;;;;;;14.38;2.75;;;;;;;25.11;74.74;99970.97;4899120;29;20035;-83
2022/08/05 05:08:57;;;;;;;6.05;1.88;;;;;;;25.10;75.20;99961.97;4880786;29;20531;-83
2022/08/05 05:11:22;;;;;;;4.78;2.08;;;;;;;25.11;77.30;99974.56;4896970;29;20033;-82
2022/08/05 05:13:48;;;;;;;6.30;2.08;;;;;;;24.99;76.35;99951.19;4896735;29;20036;-83
2022/08/05 05:16:14;;;;;;;6.03;2.08;;;;;;;24.93;74.99;99962.66;4896792;29;20035;-83
2022/08/05 05:18:42;;;;;;;4.85;1.95;;;;;;;24.97;75.48;99983.16;4896555;29;20028;-83
2022/08/05 05:21:07;;;;;;;3.90;1.70;;;;;;;24.85;77.42;99959.78;4892252;29;20465;-83
2022/08/05 05:23:32;;;;;;;6.85;2.28;;;;;;;24.78;79.49;99963.22;4897459;29;20028;-83
2022/08/05 05:25:58;;;;;;;4.93;1.75;;;;;;;24.72;81.04;99978.22;4896494;29;20040;-83
2022/08/05 05:28:23;;;;;;;5.30;1.52;;;;;;;24.59;82.83;99983.91;4895788;29;20025;-83
2022/08/05 05:30:49;;;;;;;5.90;2.08;;;;;;;24.40;83.24;99974.81;4897600;29;20096;-83
2022/08/05 05:33:14;;;;;;;2.97;1.92;;;;;;;24.37;84.70;99985.97;4895943;29;20036;-83
2022/08/05 05:35:40;;;;;;;5.82;2.38;;;;;;;24.31;84.55;99986.53;4897200;29;21014;-83
2022/08/05 05:38:06;;;;;;;4.40;2.00;;;;;;;24.32;84.91;99996.38;4893773;29;20039;-83
2022/08/05 05:40:32;;;;;;;5.10;1.77;;;;;;;24.22;84.73;99981.91;4896917;29;20051;-83
2022/08/05 05:42:58;;;;;;;6.45;2.38;;;;;;;24.37;84.96;99999.56;4890076;29;20033;-83
2022/08/05 05:45:24;;;;;;;4.68;1.98;;;;;;;24.32;85.09;99980.06;4880560;29;20763;-83
2022/08/05 05:47:50;;;;;;;7.22;2.53;;;;;;;24.44;86.11;99970.81;4879962;29;20083;-83
2022/08/05 05:50:17;;;;;;;6.88;2.50;;;;;;;24.59;85.34;99974.88;4895768;29;20024;-83
2022/08/05 05:52:43;;;;;;;7.25;2.13;;;;;;;24.91;83.89;100002.75;4896878;29;20033;-83
2022/08/05 05:55:11;;;;;;;4.25;2.10;;;;;;;25.19;82.64;100007.38;4896347;29;20152;-84
2022/08/05 05:57:38;;;;;;;7.10;1.98;;;;;;;25.55;80.28;100000.38;4896828;29;20393;-84
2022/08/05 06:00:06;;;;;;;4.93;2.30;;;;;;;25.82;78.48;99993.16;4896540;29;20040;-84
2022/08/05 06:02:31;;;;;;;5.72;2.60;;;;;;;26.04;77.90;99996.59;4896810;29;20406;-83
2022/08/05 06:04:57;;;;;;;4.00;2.13;;;;;;;26.20;75.49;99996.81;4879967;29;20028;-83
2022/08/05 06:07:22;;;;;;;6.07;1.85;;;;;;;26.27;74.53;99997.94;4896964;29;20029;-83
2022/08/05 06:09:48;;;;;;;3.00;2.05;;;;;;;26.32;72.52;99990.16;4879882;29;20056;-83
2022/08/05 06:12:13;;;;;;;4.85;2.05;;;;;;;26.52;71.70;100009.03;4896805;29;20032;-83
2022/08/05 06:14:41;;;;;;;4.82;1.88;;;;;;;26.60;72.10;99994.63;4896933;29;20056;-83
2022/08/05 06:17:06;;;;;;;6.90;3.65;;;;;;;26.85;70.43;100013.88;4879966;29;20021;-83
2022/08/05 06:19:32;;;;;;;4.18;1.85;;;;;;;27.01;69.58;100015.97;4896562;29;20080;-84
2022/08/05 06:21:57;;;;;;;5.35;2.30;;;;;;;27.21;69.82;100017.53;4896893;29;20485;-83
2022/08/05 06:24:23;;;;;;;3.80;2.42;;;;;;;27.45;69.68;100019.66;4897722;29;20024;-83
2022/08/05 06:26:48;;;;;;;7.57;2.80;;;;;;;27.52;68.14;100009.84;4895434;29;20029;-83
2022/08/05 06:29:13;;;;;;;5.38;2.28;;;;;;;27.65;64.97;99997.47;4895829;29;20032;-83
2022/08/05 06:31:39;;;;;;;8.85;2.33;;;;;;;27.84;64.23;100016.41;4897864;29;20415;-84
2022/08/05 06:34:05;;;;;;;3.33;1.77;;;;;;;28.08;63.24;100019.38;4896010;29;20032;-83
2022/08/05 06:36:30;;;;;;;4.53;1.95;;;;;;;28.21;62.86;100021.66;4897472;29;20044;-83
2022/08/05 06:38:56;;;;;;;4.68;2.00;;;;;;;28.27;60.88;100029.25;4893083;29;20040;-83
2022/08/05 06:41:22;;;;;;;4.47;2.35;;;;;;;28.43;62.01;100034.81;4898211;29;20051;-83
2022/08/05 06:43:48;;;;;;;3.67;2.00;;;;;;;28.37;61.30;100024.50;4897899;29;20048;-83
2022/08/05 06:46:14;;;;;;;31.40;3.63;;;;;;;28.53;60.64;100052.00;4880809;29;20025;-83
2022/08/05 06:48:39;;;;;;;4.20;2.10;;;;;;;28.50;57.82;100035.06;4898618;29;20040;-83
2022/08/05 06:51:05;;;;;;;3.47;1.70;;;;;;;28.58;59.24;100041.44;4897943;29;20395;-84
2022/08/05 06:53:31;;;;;;;3.85;1.70;;;;;;;28.64;59.38;100053.59;4880808;29;20025;-83
2022/08/05 06:55:58;;;;;;;6.55;2.00;;;;;;;28.59;59.39;100061.44;4880111;29;20024;-83
2022/08/05 06:58:23;;;;;;;14.65;2.50;;;;;;;28.46;59.51;100056.38;4881458;29;20555;-83
2022/08/05 07:01:03;;;;;;;4.90;1.80;;;;;;;28.70;60.06;100064.72;4878823;29;20075;-83
2022/08/05 07:03:29;;;;;;;4.78;2.10;;;;;;;28.97;59.35;100060.91;4879826;29;20021;-83
2022/08/05 07:05:55;;;;;;;4.05;1.60;;;;;;;29.31;57.94;100064.47;4896227;29;20450;-83
2022/08/05 07:08:21;;;;;;;3.00;1.50;;;;;;;29.64;55.34;100068.97;4883467;29;20564;-83
2022/08/05 07:10:47;;;;;;;3.33;1.80;;;;;;;29.91;55.43;100044.00;4883288;29;20516;-83
2022/08/05 07:18:40;;;;;;;8.93;2.22;;;;;;;31.08;49.04;100056.97;4899827;29;20044;-84
2022/08/05 07:21:06;;;;;;;6.03;1.60;;;;;;;31.12;47.39;100043.72;4883642;29;20029;-84
2022/08/05 07:23:33;;;;;;;3.58;1.63;;;;;;;31.13;46.72;100061.91;4883463;29;20032;-84
2022/08/05 07:25:59;;;;;;;3.22;1.40;;;;;;;30.89;45.52;100065.63;4883305;29;20056;-84
2022/08/05 07:28:25;;;;;;;4.53;1.67;;;;;;;30.69;47.26;100054.16;4883885;29;20028;-83
2022/08/05 07:30:50;;;;;;;3.97;1.88;;;;;;;30.67;48.08;100070.00;4882745;29;20025;-84
2022/08/05 07:33:16;;;;;;;3.50;2.00;;;;;;;30.39;49.98;100046.72;4886142;29;20029;-84
2022/08/05 07:35:42;;;;;;;3.25;1.50;;;;;;;30.32;49.46;100067.66;4882717;29;20036;-83
2022/08/05 07:38:07;;;;;;;3.55;1.48;;;;;;;30.10;52.01;100051.03;4900399;29;20533;-83
2022/08/05 07:40:33;;;;;;;2.88;1.30;;;;;;;29.85;54.56;100047.44;4899526;29;20036;-83
2022/08/05 07:42:58;;;;;;;4.35;1.75;;;;;;;29.58;58.25;100025.81;4882296;29;20039;-83
2022/08/05 07:45:24;;;;;;;3.85;1.50;;;;;;;29.61;57.59;100028.19;4899752;29;20039;-83
2022/08/05 07:47:50;;;;;;;3.97;1.40;;;;;;;30.10;54.88;100005.22;4900164;29;20038;-83
2022/08/05 07:50:15;;;;;;;3.30;1.58;;;;;;;30.79;53.92;99994.41;4899774;29;20103;-84
2022/08/05 07:52:42;;;;;;;4.15;1.52;;;;;;;31.57;49.01;99994.28;4899582;29;20039;-83
2022/08/05 07:55:08;;;;;;;2.97;1.63;;;;;;;32.22;47.50;99984.41;4899498;29;20437;-84
2022/08/05 07:57:35;;;;;;;2.50;1.27;;;;;;;32.37;43.44;99974.25;4898606;29;20028;-83
2022/08/05 08:00:01;;;;;;;3.60;1.30;;;;;;;32.43;41.94;99976.28;4881353;29;20029;-83
2022/08/05 08:02:28;;;;;;;2.42;1.25;;;;;;;31.74;44.80;99968.34;4898029;29;20465;-83
2022/08/05 08:04:54;;;;;;;4.03;1.52;;;;;;;31.51;46.41;99968.38;4897394;29;20027;-83
2022/08/05 08:07:20;;;;;;;2.70;1.50;;;;;;;31.40;46.34;99938.56;4880241;29;20048;-83
2022/08/05 08:09:46;;;;;;;13.38;2.65;;;;;;;31.94;47.38;99970.41;4862791;29;20056;-83
2022/08/05 08:12:12;;;;;;;5.15;1.65;;;;;;;32.25;44.26;99959.25;4897145;29;20727;-83
2022/08/05 08:14:38;;;;;;;3.00;1.60;;;;;;;32.10;43.87;99925.34;4896818;29;20032;-84
2022/08/05 08:17:04;;;;;;;2.95;1.45;;;;;;;32.56;45.25;99959.94;4868875;29;20025;-83
2022/08/05 08:19:29;;;;;;;3.58;1.27;;;;;;;33.14;42.11;99948.81;4862523;29;20032;-84
2022/08/05 08:21:55;;;;;;;3.38;1.48;;;;;;;33.13;41.61;99960.88;4879979;29;20029;-83
2022/08/05 08:24:20;;;;;;;3.30;1.42;;;;;;;33.47;41.91;99970.38;4863643;29;20508;-84
2022/08/05 08:26:46;;;;;;;3.28;1.40;;;;;;;33.92;39.82;99951.47;4863257;29;20112;-84
2022/08/05 08:29:11;;;;;;;2.50;1.33;;;;;;;33.74;39.59;99953.00;4872395;29;20083;-84
2022/08/05 08:31:36;;;;;;;3.25;1.33;;;;;;;33.80;40.56;99938.41;4897087;29;20661;-84
2022/08/05 08:34:02;;;;;;;4.53;1.50;;;;;;;34.28;40.12;99935.56;4897121;29;20123;-84
2022/08/05 08:36:27;;;;;;;1.63;1.10;;;;;;;34.53;38.56;99927.69;4898532;29;20029;-84
2022/08/05 08:38:54;;;;;;;3.13;1.30;;;;;;;34.17;37.38;99938.06;4897804;29;20021;-84
2022/08/05 08:41:21;;;;;;;2.10;1.30;;;;;;;34.14;39.00;99930.19;4897603;29;20505;-84
2022/08/05 08:43:49;;;;;;;3.28;1.33;;;;;;;34.48;38.93;99938.50;4885338;29;20119;-84
2022/08/05 08:46:16;;;;;;;2.60;1.45;;;;;;;34.52;38.67;99923.22;4880966;29;20060;-84
2022/08/05 08:48:45;;;;;;;2.05;1.50;;;;;;;34.62;37.79;99939.41;4880950;29;20766;-84
2022/08/05 08:51:11;;;;;;;2.95;1.20;;;;;;;34.85;37.97;99940.78;4897826;29;20024;-84
2022/08/05 08:53:37;;;;;;;2.15;1.30;;;;;;;34.64;37.34;99938.16;4898115;29;20028;-84
2022/08/05 08:56:04;;;;;;;3.35;1.30;;;;;;;34.85;38.02;99945.44;4898138;29;20438;-84
2022/08/05 08:58:31;;;;;;;2.55;1.38;;;;;;;34.70;37.49;99936.50;4880441;29;20044;-85
2022/08/05 09:00:57;;;;;;;2.75;1.30;;;;;;;34.64;38.39;99931.75;4881418;29;20029;-84
2022/08/05 09:03:23;;;;;;;2.08;1.23;;;;;;;35.06;37.70;99942.59;4898792;29;20035;-84
2022/08/05 09:05:49;;;;;;;3.40;1.20;;;;;;;35.31;37.25;99947.31;4881679;29;20531;-84
2022/08/05 09:08:15;;;;;;;1.60;1.05;;;;;;;35.42;37.80;99968.03;4881690;29;20052;-84
2022/08/05 09:10:43;;;;;;;9.40;2.95;;;;;;;35.65;37.63;99955.47;4898154;29;20035;-84
2022/08/05 09:13:09;;;;;;;2.67;1.65;;;;;;;36.10;35.73;99955.69;4880813;29;20036;-84
2022/08/05 09:15:37;;;;;;;2.47;1.13;;;;;;;36.35;35.23;99946.53;4897973;29;20033;-85
2022/08/05 09:18:04;;;;;;;2.47;1.25;;;;;;;36.58;35.28;99949.66;4897584;29;20032;-84
2022/08/05 09:20:30;;;;;;;4.00;1.40;;;;;;;36.61;35.05;99945.56;4881048;29;20024;-84
2022/08/05 09:23:06;;;;;;;2.63;1.67;;;;;;;36.70;35.76;99963.69;4876601;29;20083;-84
2022/08/05 09:25:32;;;;;;;2.22;1.40;;;;;;;36.16;35.40;99964.03;4878784;29;20021;-84
2022/08/05 09:28:12;;;;;;;3.17;1.30;;;;;;;36.11;35.44;99943.56;4879076;29;20168;-84
2022/08/05 09:30:41;;;;;;;2.22;1.20;;;;;;;36.44;34.94;99961.84;4860922;29;20029;-84
2022/08/05 09:33:07;;;;;;;3.15;1.42;;;;;;;35.99;34.52;99962.75;4862018;29;20024;-84
2022/08/05 09:35:32;;;;;;;2.88;1.33;;;;;;;36.18;35.30;99963.81;4896673;29;20031;-84
2022/08/05 09:37:58;;;;;;;3.08;1.45;;;;;;;36.46;35.24;99984.66;4880069;29;20032;-84
2022/08/05 09:40:41;;;;;;;2.55;1.30;;;;;;;36.48;33.91;99967.78;4880297;29;20020;-84
2022/08/05 09:43:09;;;;;;;2.55;1.20;;;;;;;36.42;35.09;99974.22;4880000;29;20032;-84
2022/08/05 09:45:41;;;;;;;1.73;1.20;;;;;;;36.62;34.16;99972.25;4868812;29;20037;-84
2022/08/05 09:48:24;;;;;;;2.97;1.50;;;;;;;36.83;34.45;99966.44;4897224;29;20032;-85
2022/08/05 09:50:56;;;;;;;3.15;1.35;;;;;;;36.71;34.56;99955.16;4880493;29;20036;-84
2022/08/05 09:53:21;;;;;;;4.22;1.27;;;;;;;36.78;35.03;99936.59;4897414;29;20511;-85
2022/08/05 09:55:51;;;;;;;2.88;1.35;;;;;;;37.28;33.75;99948.75;4898017;29;20036;-84
2022/08/05 09:58:17;;;;;;;4.80;1.48;;;;;;;37.53;34.29;99957.94;4880893;29;21147;-85
2022/08/05 10:01:03;;;;;;;6.53;1.10;;;;;;;37.60;34.76;99947.63;4896245;29;20160;-85
2022/08/05 10:03:29;;;;;;;4.80;2.67;;;;;;;37.53;34.42;99973.75;4880442;29;20029;-84
2022/08/05 10:06:20;;;;;;;1.75;1.08;;;;;;;37.55;33.79;99966.03;4897354;29;20028;-84
2022/08/05 10:08:46;;;;;;;1.75;1.10;;;;;;;37.65;33.36;99952.50;4877574;29;20059;-84
2022/08/05 10:11:16;;;;;;;3.47;1.30;;;;;;;37.28;33.09;99937.63;4880745;29;20437;-86
2022/08/05 10:13:42;;;;;;;3.13;1.02;;;;;;;37.40;33.18;99963.56;4863257;29;20119;-85
2022/08/05 10:16:28;;;;;;;2.45;1.20;;;;;;;37.57;33.02;99959.19;4877757;29;20032;-86
2022/08/05 10:18:53;;;;;;;2.50;1.30;;;;;;;37.90;32.84;99979.25;4878181;29;20048;-83
2022/08/05 10:21:19;;;;;;;2.65;1.10;;;;;;;37.25;34.02;99960.25;4893341;29;20039;-84
2022/08/05 10:23:46;;;;;;;2.63;1.27;;;;;;;36.74;33.79;99973.25;4862550;29;20040;-85
2022/08/05 10:26:11;;;;;;;1.80;0.90;;;;;;;36.83;33.66;99969.22;4895054;29;20036;-84
2022/08/05 10:28:37;;;;;;;1.95;1.08;;;;;;;37.27;33.14;99968.38;4882155;29;20028;-85
2022/08/05 10:31:03;;;;;;;3.22;1.20;;;;;;;37.12;34.42;99971.41;4879560;29;20044;-86
2022/08/05 10:33:31;;;;;;;2.38;1.02;;;;;;;36.98;33.05;99967.88;4879861;29;20028;-85
2022/08/05 10:35:58;;;;;;;3.00;1.33;;;;;;;36.80;33.73;99972.44;4880472;29;20096;-84
2022/08/05 10:38:27;;;;;;;1.80;0.93;;;;;;;37.18;33.27;99955.81;4896489;29;20032;-82
2022/08/05 10:41:04;;;;;;;3.50;1.40;;;;;;;37.50;33.74;99963.94;4897700;29;20051;-83
2022/08/05 10:43:45;;;;;;;3.45;1.38;;;;;;;37.41;33.23;99958.88;4900596;29;20442;-84
2022/08/05 10:46:13;;;;;;;4.50;1.20;;;;;;;37.29;33.90;99955.97;4874975;29;20021;-84
2022/08/05 10:48:54;;;;;;;4.90;1.50;;;;;;;37.72;34.26;99950.56;4878975;29;20033;-84
2022/08/05 10:51:21;;;;;;;2.17;1.00;;;;;;;38.27;32.19;99954.38;4864572;29;20406;-85
2022/08/05 10:53:50;;;;;;;5.18;1.33;;;;;;;38.67;30.70;99966.75;4880189;29;20021;-84
2022/08/05 10:56:18;;;;;;;1.70;1.08;;;;;;;38.73;31.41;99951.94;4864786;29;20506;-84
2022/08/05 10:59:05;;;;;;;4.13;1.15;;;;;;;38.70;30.31;99967.13;4865298;29;20033;-84
2022/08/05 11:01:36;;;;;;;3.72;1.08;;;;;;;38.87;30.75;99950.66;4881342;29;20501;-84
2022/08/05 11:04:11;;;;;;;6.35;1.20;;;;;;;38.86;31.30;99960.09;4883047;29;20029;-84
2022/08/05 11:07:03;;;;;;;2.55;1.15;;;;;;;39.03;31.18;99956.47;4881358;29;20092;-84
2022/08/05 11:09:48;;;;;;;2.20;1.13;;;;;;;39.21;30.42;99958.38;4864675;29;20053;-84
2022/08/05 11:12:23;;;;;;;1.17;0.80;;;;;;;39.62;30.60;99969.56;4907857;29;20039;-83
2022/08/05 11:15:04;;;;;;;4.00;1.05;;;;;;;39.32;29.59;99966.78;4867060;29;20033;-83
2022/08/05 11:17:33;;;;;;;1.42;0.93;;;;;;;39.41;31.05;99947.78;4883792;29;20036;-84
2022/08/05 11:19:59;;;;;;;1.80;1.10;;;;;;;39.27;30.46;99961.06;4886926;29;20372;-83
2022/08/05 11:22:42;;;;;;;2.10;1.10;;;;;;;39.29;30.05;99961.66;4883259;29;20104;-84
2022/08/05 11:25:43;;;;;;;2.08;1.15;;;;;;;39.18;28.93;99958.81;4876298;29;20032;-83
2022/08/05 11:28:08;;;;;;;1.65;0.90;;;;;;;39.35;29.63;99965.44;4899705;29;20035;-83
2022/08/05 11:30:56;;;;;;;1.90;1.00;;;;;;;39.20;30.23;99967.81;4868962;29;20036;-83
2022/08/05 11:33:32;;;;;;;2.20;0.85;;;;;;;39.37;30.32;99968.84;4865057;29;20089;-84
2022/08/05 11:36:02;;;;;;;1.45;0.93;;;;;;;39.19;30.29;99960.53;4881822;29;20111;-84
2022/08/05 11:38:43;;;;;;;2.33;1.05;;;;;;;39.41;31.21;99970.06;4883109;29;20500;-84
2022/08/05 11:41:25;;;;;;;1.80;1.00;;;;;;;40.14;30.05;99967.84;4887472;29;20806;-84
2022/08/05 11:44:00;;;;;;;3.67;1.17;;;;;;;40.68;28.24;99964.66;4917601;29;20503;-84